sensor_id;sensor_type;location;lat;lon;timestamp;pressure;altitude;pressure_sealevel;temperature;humidity
49729;BME280;66333;49.798;10.968;2023-07-30T00:00:14;97616.47;;;21.55;59.59
49729;BME280;66333;49.798;10.968;2023-07-30T00:02:44;97622.16;;;21.47;59.87
49729;BME280;66333;49.798;10.968;2023-07-30T00:05:15;97610.91;;;21.45;59.83
49729;BME280;66333;49.798;10.968;2023-07-30T00:07:50;97620.06;;;21.49;59.63
49729;BME280;66333;49.798;10.968;2023-07-30T00:10:22;97629.13;;;21.48;59.75
49729;BME280;66333;49.798;10.968;2023-07-30T00:13:11;97632.03;;;21.46;59.90
49729;BME280;66333;49.798;10.968;2023-07-30T00:15:41;97630.63;;;21.44;59.61
49729;BME280;66333;49.798;10.968;2023-07-30T00:18:11;97629.00;;;21.43;59.77
49729;BME280;66333;49.798;10.968;2023-07-30T00:20:41;97642.34;;;21.43;60.06
49729;BME280;66333;49.798;10.968;2023-07-30T00:23:11;97638.63;;;21.44;59.64
49729;BME280;66333;49.798;10.968;2023-07-30T00:25:41;97632.22;;;21.45;59.88
49729;BME280;66333;49.798;10.968;2023-07-30T00:28:34;97639.41;;;21.44;59.90
49729;BME280;66333;49.798;10.968;2023-07-30T00:31:00;97637.00;;;21.43;59.68
49729;BME280;66333;49.798;10.968;2023-07-30T00:33:28;97638.63;;;21.44;59.57
49729;BME280;66333;49.798;10.968;2023-07-30T00:36:02;97651.38;;;21.42;59.75
49729;BME280;66333;49.798;10.968;2023-07-30T00:38:32;97654.03;;;21.42;59.84
49729;BME280;66333;49.798;10.968;2023-07-30T00:41:02;97650.25;;;21.37;59.94
49729;BME280;66333;49.798;10.968;2023-07-30T00:43:50;97644.91;;;21.37;59.91
49729;BME280;66333;49.798;10.968;2023-07-30T00:46:21;97658.81;;;21.39;59.67
49729;BME280;66333;49.798;10.968;2023-07-30T00:48:51;97651.38;;;21.42;59.58
49729;BME280;66333;49.798;10.968;2023-07-30T00:51:21;97645.09;;;21.48;59.50
49729;BME280;66333;49.798;10.968;2023-07-30T00:53:57;97650.91;;;21.45;59.43
49729;BME280;66333;49.798;10.968;2023-07-30T00:56:26;97639.41;;;21.44;59.35
49729;BME280;66333;49.798;10.968;2023-07-30T00:59:00;97637.50;;;21.39;59.59
49729;BME280;66333;49.798;10.968;2023-07-30T01:01:29;97637.97;;;21.36;59.54
49729;BME280;66333;49.798;10.968;2023-07-30T01:04:03;97639.59;;;21.37;59.63
49729;BME280;66333;49.798;10.968;2023-07-30T01:06:33;97639.09;;;21.40;59.51
49729;BME280;66333;49.798;10.968;2023-07-30T01:09:03;97637.13;;;21.36;59.71
49729;BME280;66333;49.798;10.968;2023-07-30T01:11:33;97638.53;;;21.38;59.65
49729;BME280;66333;49.798;10.968;2023-07-30T01:14:14;97643.38;;;21.42;59.33
49729;BME280;66333;49.798;10.968;2023-07-30T01:16:46;97640.72;;;21.42;59.44
49729;BME280;66333;49.798;10.968;2023-07-30T01:19:28;97641.66;;;21.35;59.74
49729;BME280;66333;49.798;10.968;2023-07-30T01:21:59;97647.47;;;21.32;59.76
49729;BME280;66333;49.798;10.968;2023-07-30T01:24:29;97653.84;;;21.31;59.45
49729;BME280;66333;49.798;10.968;2023-07-30T01:27:01;97653.28;;;21.29;59.52
49729;BME280;66333;49.798;10.968;2023-07-30T01:29:40;97659.50;;;21.23;59.93
49729;BME280;66333;49.798;10.968;2023-07-30T01:32:11;97657.91;;;21.22;59.88
49729;BME280;66333;49.798;10.968;2023-07-30T01:34:48;97655.00;;;21.24;59.64
49729;BME280;66333;49.798;10.968;2023-07-30T01:37:30;97655.81;;;21.24;59.76
49729;BME280;66333;49.798;10.968;2023-07-30T01:40:00;97667.25;;;21.25;59.62
49729;BME280;66333;49.798;10.968;2023-07-30T01:42:37;97660.69;;;21.27;59.60
49729;BME280;66333;49.798;10.968;2023-07-30T01:45:13;97657.22;;;21.27;59.54
49729;BME280;66333;49.798;10.968;2023-07-30T01:47:41;97644.69;;;21.27;59.47
49729;BME280;66333;49.798;10.968;2023-07-30T01:50:10;97646.91;;;21.30;59.54
49729;BME280;66333;49.798;10.968;2023-07-30T01:52:42;97648.38;;;21.26;59.57
49729;BME280;66333;49.798;10.968;2023-07-30T01:55:17;97649.91;;;21.22;59.65
49729;BME280;66333;49.798;10.968;2023-07-30T01:57:46;97649.78;;;21.17;59.89
49729;BME280;66333;49.798;10.968;2023-07-30T02:00:15;97652.22;;;21.19;59.70
49729;BME280;66333;49.798;10.968;2023-07-30T02:02:45;97647.69;;;21.19;59.64
49729;BME280;66333;49.798;10.968;2023-07-30T02:05:18;97643.31;;;21.13;60.11
49729;BME280;66333;49.798;10.968;2023-07-30T02:07:55;97642.28;;;21.14;60.18
49729;BME280;66333;49.798;10.968;2023-07-30T02:10:26;97641.22;;;21.15;59.71
49729;BME280;66333;49.798;10.968;2023-07-30T02:12:56;97640.19;;;21.16;59.69
49729;BME280;66333;49.798;10.968;2023-07-30T02:15:26;97644.00;;;21.20;59.55
49729;BME280;66333;49.798;10.968;2023-07-30T02:17:56;97650.59;;;21.18;59.57
49729;BME280;66333;49.798;10.968;2023-07-30T02:20:26;97643.41;;;21.18;59.46
49729;BME280;66333;49.798;10.968;2023-07-30T02:23:00;97649.78;;;21.17;59.72
49729;BME280;66333;49.798;10.968;2023-07-30T02:25:30;97641.78;;;21.17;59.65
49729;BME280;66333;49.798;10.968;2023-07-30T02:28:01;97645.50;;;21.16;59.51
49729;BME280;66333;49.798;10.968;2023-07-30T02:30:32;97638.56;;;21.15;59.57
49729;BME280;66333;49.798;10.968;2023-07-30T02:33:07;97644.94;;;21.14;59.64
49729;BME280;66333;49.798;10.968;2023-07-30T02:35:38;97638.44;;;21.10;59.88
49729;BME280;66333;49.798;10.968;2023-07-30T02:38:20;97641.09;;;21.10;59.93
49729;BME280;66333;49.798;10.968;2023-07-30T02:40:50;97644.13;;;21.13;59.88
49729;BME280;66333;49.798;10.968;2023-07-30T02:43:20;97643.31;;;21.13;59.55
49729;BME280;66333;49.798;10.968;2023-07-30T02:45:47;97656.06;;;21.11;59.62
49729;BME280;66333;49.798;10.968;2023-07-30T02:48:16;97659.31;;;21.13;59.58
49729;BME280;66333;49.798;10.968;2023-07-30T02:50:46;97653.16;;;21.12;59.72
49729;BME280;66333;49.798;10.968;2023-07-30T02:53:28;97663.03;;;21.12;59.54
49729;BME280;66333;49.798;10.968;2023-07-30T02:55:58;97658.13;;;21.09;59.87
49729;BME280;66333;49.798;10.968;2023-07-30T02:58:40;97665.09;;;21.10;59.93
49729;BME280;66333;49.798;10.968;2023-07-30T03:01:10;97666.38;;;21.07;59.89
49729;BME280;66333;49.798;10.968;2023-07-30T03:03:40;97654.91;;;21.07;59.90
49729;BME280;66333;49.798;10.968;2023-07-30T03:06:21;97655.47;;;21.09;59.80
49729;BME280;66333;49.798;10.968;2023-07-30T03:08:56;97651.69;;;21.05;59.96
49729;BME280;66333;49.798;10.968;2023-07-30T03:11:26;97656.63;;;21.01;60.02
49729;BME280;66333;49.798;10.968;2023-07-30T03:13:56;97672.88;;;21.00;59.67
49729;BME280;66333;49.798;10.968;2023-07-30T03:16:26;97672.41;;;21.03;59.83
49729;BME280;66333;49.798;10.968;2023-07-30T03:19:02;97671.38;;;21.04;59.86
49729;BME280;66333;49.798;10.968;2023-07-30T03:21:31;97675.09;;;21.03;59.66
49729;BME280;66333;49.798;10.968;2023-07-30T03:24:15;97669.75;;;21.03;59.83
49729;BME280;66333;49.798;10.968;2023-07-30T03:26:45;97678.75;;;21.02;59.70
49729;BME280;66333;49.798;10.968;2023-07-30T03:29:15;97681.09;;;20.98;59.86
49729;BME280;66333;49.798;10.968;2023-07-30T03:31:46;97686.75;;;21.02;59.90
49729;BME280;66333;49.798;10.968;2023-07-30T03:34:16;97687.81;;;21.01;59.90
49729;BME280;66333;49.798;10.968;2023-07-30T03:36:46;97685.13;;;21.01;59.69
49729;BME280;66333;49.798;10.968;2023-07-30T03:39:20;97681.44;;;21.02;59.95
49729;BME280;66333;49.798;10.968;2023-07-30T03:41:48;97686.19;;;21.00;59.68
49729;BME280;66333;49.798;10.968;2023-07-30T03:44:18;97687.81;;;21.01;59.43
49729;BME280;66333;49.798;10.968;2023-07-30T03:46:46;97682.84;;;21.04;59.45
49729;BME280;66333;49.798;10.968;2023-07-30T03:49:19;97686.19;;;21.00;59.61
49729;BME280;66333;49.798;10.968;2023-07-30T03:51:47;97683.16;;;21.08;59.31
49729;BME280;66333;49.798;10.968;2023-07-30T03:54:22;97685.75;;;21.03;59.78
49729;BME280;66333;49.798;10.968;2023-07-30T03:56:52;97694.19;;;21.00;59.81
49729;BME280;66333;49.798;10.968;2023-07-30T03:59:22;97694.19;;;21.00;59.73
49729;BME280;66333;49.798;10.968;2023-07-30T04:01:52;97690.59;;;21.06;59.44
49729;BME280;66333;49.798;10.968;2023-07-30T04:04:33;97696.41;;;21.03;59.62
49729;BME280;66333;49.798;10.968;2023-07-30T04:07:02;97684.78;;;21.09;59.31
49729;BME280;66333;49.798;10.968;2023-07-30T04:09:44;97684.56;;;20.99;59.58
49729;BME280;66333;49.798;10.968;2023-07-30T04:12:14;97692.00;;;20.97;59.74
49729;BME280;66333;49.798;10.968;2023-07-30T04:14:45;97693.59;;;20.98;59.51
49729;BME280;66333;49.798;10.968;2023-07-30T04:17:15;97695.34;;;20.92;59.74
49729;BME280;66333;49.798;10.968;2023-07-30T04:19:45;97693.72;;;20.91;59.90
49729;BME280;66333;49.798;10.968;2023-07-30T04:22:28;97698.22;;;20.91;60.00
49729;BME280;66333;49.798;10.968;2023-07-30T04:25:17;97698.72;;;20.88;59.93
49729;BME280;66333;49.798;10.968;2023-07-30T04:27:47;97707.28;;;20.90;60.03
49729;BME280;66333;49.798;10.968;2023-07-30T04:30:29;97706.13;;;20.86;59.95
49729;BME280;66333;49.798;10.968;2023-07-30T04:32:56;97709.69;;;20.91;59.61
49729;BME280;66333;49.798;10.968;2023-07-30T04:35:27;97710.50;;;20.92;59.63
49729;BME280;66333;49.798;10.968;2023-07-30T04:37:58;97711.78;;;20.89;59.86
49729;BME280;66333;49.798;10.968;2023-07-30T04:40:33;97713.16;;;20.92;59.62
49729;BME280;66333;49.798;10.968;2023-07-30T04:43:03;97710.50;;;20.92;59.78
49729;BME280;66333;49.798;10.968;2023-07-30T04:45:33;97712.59;;;20.90;59.82
49729;BME280;66333;49.798;10.968;2023-07-30T04:48:04;97715.25;;;20.90;59.93
49729;BME280;66333;49.798;10.968;2023-07-30T04:50:32;97707.28;;;20.90;59.70
49729;BME280;66333;49.798;10.968;2023-07-30T04:53:02;97718.16;;;20.88;59.89
49729;BME280;66333;49.798;10.968;2023-07-30T04:55:44;97718.75;;;20.90;59.57
49729;BME280;66333;49.798;10.968;2023-07-30T04:58:14;97716.88;;;20.91;59.45
49729;BME280;66333;49.798;10.968;2023-07-30T05:00:55;97716.31;;;20.89;59.91
49729;BME280;66333;49.798;10.968;2023-07-30T05:03:26;97724.88;;;20.91;59.81
49729;BME280;66333;49.798;10.968;2023-07-30T05:06:02;97722.69;;;20.88;59.69
49729;BME280;66333;49.798;10.968;2023-07-30T05:08:30;97723.72;;;20.87;59.58
49729;BME280;66333;49.798;10.968;2023-07-30T05:11:12;97723.50;;;20.88;59.63
49729;BME280;66333;49.798;10.968;2023-07-30T05:13:42;97725.34;;;20.88;59.64
49729;BME280;66333;49.798;10.968;2023-07-30T05:16:11;97726.97;;;20.89;59.60
49729;BME280;66333;49.798;10.968;2023-07-30T05:18:38;97729.06;;;20.87;59.51
49729;BME280;66333;49.798;10.968;2023-07-30T05:21:12;97732.53;;;20.87;59.55
49729;BME280;66333;49.798;10.968;2023-07-30T05:23:43;97737.63;;;20.89;59.56
49729;BME280;66333;49.798;10.968;2023-07-30T05:26:18;97744.00;;;20.88;59.69
49729;BME280;66333;49.798;10.968;2023-07-30T05:28:48;97745.47;;;20.83;59.73
49729;BME280;66333;49.798;10.968;2023-07-30T05:31:18;97750.81;;;20.83;59.61
49729;BME280;66333;49.798;10.968;2023-07-30T05:33:48;97757.41;;;20.81;59.83
49729;BME280;66333;49.798;10.968;2023-07-30T05:36:16;97747.09;;;20.84;59.82
49729;BME280;66333;49.798;10.968;2023-07-30T05:38:46;97748.94;;;20.84;59.82
49729;BME280;66333;49.798;10.968;2023-07-30T05:41:30;97749.19;;;20.82;59.75
49729;BME280;66333;49.798;10.968;2023-07-30T05:44:00;97761.13;;;20.80;59.67
49729;BME280;66333;49.798;10.968;2023-07-30T05:46:30;97763.53;;;20.81;59.74
49729;BME280;66333;49.798;10.968;2023-07-30T05:49:01;97758.69;;;20.78;60.38
49729;BME280;66333;49.798;10.968;2023-07-30T05:51:31;97761.00;;;20.87;60.29
49729;BME280;66333;49.798;10.968;2023-07-30T05:53:59;97758.22;;;20.81;60.19
49729;BME280;66333;49.798;10.968;2023-07-30T05:56:40;97769.34;;;20.78;60.00
49729;BME280;66333;49.798;10.968;2023-07-30T05:59:10;97770.50;;;20.82;60.28
49729;BME280;66333;49.798;10.968;2023-07-30T06:01:38;97761.47;;;20.83;60.02
49729;BME280;66333;49.798;10.968;2023-07-30T06:04:08;97766.06;;;20.76;61.30
49729;BME280;66333;49.798;10.968;2023-07-30T06:06:38;97764.81;;;20.79;62.13
49729;BME280;66333;49.798;10.968;2023-07-30T06:09:08;97771.78;;;20.80;60.67
49729;BME280;66333;49.798;10.968;2023-07-30T06:11:44;97772.91;;;20.84;61.29
49729;BME280;66333;49.798;10.968;2023-07-30T06:14:18;97776.19;;;20.86;61.04
49729;BME280;66333;49.798;10.968;2023-07-30T06:16:48;97778.03;;;20.86;61.14
49729;BME280;66333;49.798;10.968;2023-07-30T06:19:18;97779.66;;;20.87;61.09
49729;BME280;66333;49.798;10.968;2023-07-30T06:21:47;97779.28;;;20.83;61.14
49729;BME280;66333;49.798;10.968;2023-07-30T06:24:17;97787.66;;;20.87;60.75
49729;BME280;66333;49.798;10.968;2023-07-30T06:26:52;97791.94;;;20.88;60.72
49729;BME280;66333;49.798;10.968;2023-07-30T06:29:20;97790.06;;;20.88;60.88
49729;BME280;66333;49.798;10.968;2023-07-30T06:31:50;97793.53;;;20.77;61.00
49729;BME280;66333;49.798;10.968;2023-07-30T06:34:19;97788.91;;;20.84;60.67
49729;BME280;66333;49.798;10.968;2023-07-30T06:36:48;97795.50;;;20.81;60.94
49729;BME280;66333;49.798;10.968;2023-07-30T06:39:15;97792.59;;;20.83;60.79
49729;BME280;66333;49.798;10.968;2023-07-30T06:41:45;97804.53;;;20.80;60.66
49729;BME280;66333;49.798;10.968;2023-07-30T06:44:20;97806.63;;;20.78;60.92
49729;BME280;66333;49.798;10.968;2023-07-30T06:46:51;97796.78;;;20.79;60.73
49729;BME280;66333;49.798;10.968;2023-07-30T06:49:18;97799.22;;;20.80;60.92
49729;BME280;66333;49.798;10.968;2023-07-30T06:51:49;97806.16;;;20.81;60.52
49729;BME280;66333;49.798;10.968;2023-07-30T06:54:19;97806.00;;;20.76;60.87
49729;BME280;66333;49.798;10.968;2023-07-30T06:56:51;97793.88;;;20.80;60.55
49729;BME280;66333;49.798;10.968;2023-07-30T06:59:37;97798.16;;;20.81;60.58
49729;BME280;66333;49.798;10.968;2023-07-30T07:02:06;97795.75;;;20.80;60.67
49729;BME280;66333;49.798;10.968;2023-07-30T07:04:36;97791.09;;;20.75;60.68
49729;BME280;66333;49.798;10.968;2023-07-30T07:07:04;97785.75;;;20.75;60.45
49729;BME280;66333;49.798;10.968;2023-07-30T07:09:33;97786.47;;;20.82;60.35
49729;BME280;66333;49.798;10.968;2023-07-30T07:12:03;97795.03;;;20.84;60.45
49729;BME280;66333;49.798;10.968;2023-07-30T07:14:37;97794.13;;;20.79;60.36
49729;BME280;66333;49.798;10.968;2023-07-30T07:17:09;97794.13;;;20.91;60.16
49729;BME280;66333;49.798;10.968;2023-07-30T07:19:44;97796.34;;;20.94;59.98
49729;BME280;66333;49.798;10.968;2023-07-30T07:22:15;97796.91;;;20.96;59.71
49729;BME280;66333;49.798;10.968;2023-07-30T07:24:46;97800.16;;;20.98;59.79
49729;BME280;66333;49.798;10.968;2023-07-30T07:27:21;97797.97;;;20.95;59.59
49729;BME280;66333;49.798;10.968;2023-07-30T07:29:54;97802.34;;;20.89;59.93
49729;BME280;66333;49.798;10.968;2023-07-30T07:32:22;97796.91;;;20.96;59.72
49729;BME280;66333;49.798;10.968;2023-07-30T07:34:52;97795.41;;;21.00;59.51
49729;BME280;66333;49.798;10.968;2023-07-30T07:37:22;97799.56;;;20.84;60.23
49729;BME280;66333;49.798;10.968;2023-07-30T07:39:50;97792.50;;;20.90;60.66
49729;BME280;66333;49.798;10.968;2023-07-30T07:42:21;97795.31;;;20.95;61.80
49729;BME280;66333;49.798;10.968;2023-07-30T07:44:50;97797.72;;;20.96;62.01
49729;BME280;66333;49.798;10.968;2023-07-30T07:47:33;97793.22;;;20.97;61.51
49729;BME280;66333;49.798;10.968;2023-07-30T07:50:02;97789.97;;;20.95;61.37
49729;BME280;66333;49.798;10.968;2023-07-30T07:52:38;97795.75;;;20.92;61.61
49729;BME280;66333;49.798;10.968;2023-07-30T07:55:08;97798.16;;;20.93;62.50
49729;BME280;66333;49.798;10.968;2023-07-30T07:57:38;97794.72;;;21.04;62.00
49729;BME280;66333;49.798;10.968;2023-07-30T08:00:09;97797.84;;;21.13;62.12
49729;BME280;66333;49.798;10.968;2023-07-30T08:03:04;97783.50;;;21.14;63.08
49729;BME280;66333;49.798;10.968;2023-07-30T08:05:33;97794.63;;;21.11;62.81
49729;BME280;66333;49.798;10.968;2023-07-30T08:08:03;97791.81;;;21.06;62.49
49729;BME280;66333;49.798;10.968;2023-07-30T08:10:41;97795.19;;;21.13;62.38
49729;BME280;66333;49.798;10.968;2023-07-30T08:13:11;97789.97;;;21.18;60.40
49729;BME280;66333;49.798;10.968;2023-07-30T08:15:41;97794.63;;;21.11;61.98
49729;BME280;66333;49.798;10.968;2023-07-30T08:18:23;97799.47;;;21.02;63.01
49729;BME280;66333;49.798;10.968;2023-07-30T08:20:53;97796.69;;;21.09;62.97
49729;BME280;66333;49.798;10.968;2023-07-30T08:23:23;97799.47;;;21.14;62.66
49729;BME280;66333;49.798;10.968;2023-07-30T08:26:04;97802.72;;;21.16;61.87
49729;BME280;66333;49.798;10.968;2023-07-30T08:28:33;97806.53;;;21.08;62.49
49729;BME280;66333;49.798;10.968;2023-07-30T08:31:05;97805.84;;;21.13;63.18
49729;BME280;66333;49.798;10.968;2023-07-30T08:33:36;97808.50;;;21.13;62.44
49729;BME280;66333;49.798;10.968;2023-07-30T08:36:04;97813.03;;;21.24;61.23
49729;BME280;66333;49.798;10.968;2023-07-30T08:38:39;97811.75;;;21.03;61.33
49729;BME280;66333;49.798;10.968;2023-07-30T08:41:09;97810.00;;;21.09;61.51
49729;BME280;66333;49.798;10.968;2023-07-30T08:43:39;97819.63;;;21.10;61.53
49729;BME280;66333;49.798;10.968;2023-07-30T08:46:09;97818.13;;;21.14;61.49
49729;BME280;66333;49.798;10.968;2023-07-30T08:48:58;97815.34;;;21.09;61.50
49729;BME280;66333;49.798;10.968;2023-07-30T08:51:27;97816.63;;;21.18;60.89
49729;BME280;66333;49.798;10.968;2023-07-30T08:53:57;97814.34;;;21.33;60.77
49729;BME280;66333;49.798;10.968;2023-07-30T08:56:26;97806.91;;;21.35;60.24
49729;BME280;66333;49.798;10.968;2023-07-30T08:58:59;97813.41;;;21.39;60.38
49729;BME280;66333;49.798;10.968;2023-07-30T09:01:30;97804.84;;;21.37;60.37
49729;BME280;66333;49.798;10.968;2023-07-30T09:04:15;97825.47;;;21.30;61.19
49729;BME280;66333;49.798;10.968;2023-07-30T09:06:56;97814.00;;;21.30;60.67
49729;BME280;66333;49.798;10.968;2023-07-30T09:09:27;97818.03;;;21.32;60.73
49729;BME280;66333;49.798;10.968;2023-07-30T09:11:57;97812.25;;;21.35;60.63
49729;BME280;66333;49.798;10.968;2023-07-30T09:14:29;97810.63;;;21.34;59.41
49729;BME280;66333;49.798;10.968;2023-07-30T09:17:00;97801.31;;;21.25;61.15
49729;BME280;66333;49.798;10.968;2023-07-30T09:19:36;97808.19;;;21.21;60.87
49729;BME280;66333;49.798;10.968;2023-07-30T09:22:20;97799.69;;;21.24;60.90
49729;BME280;66333;49.798;10.968;2023-07-30T09:24:49;97801.22;;;21.20;61.22
49729;BME280;66333;49.798;10.968;2023-07-30T09:27:21;97798.00;;;21.30;60.66
49729;BME280;66333;49.798;10.968;2023-07-30T09:29:53;97804.59;;;21.27;60.81
49729;BME280;66333;49.798;10.968;2023-07-30T09:32:25;97808.41;;;21.20;61.06
49729;BME280;66333;49.798;10.968;2023-07-30T09:35:03;97803.34;;;21.30;59.72
49729;BME280;66333;49.798;10.968;2023-07-30T09:37:38;97800.44;;;21.31;59.04
49729;BME280;66333;49.798;10.968;2023-07-30T09:40:08;97803.78;;;21.27;60.57
49729;BME280;66333;49.798;10.968;2023-07-30T09:42:42;97797.63;;;21.26;60.55
49729;BME280;66333;49.798;10.968;2023-07-30T09:45:17;97798.81;;;21.30;60.60
49729;BME280;66333;49.798;10.968;2023-07-30T09:47:46;97810.63;;;21.34;60.37
49729;BME280;66333;49.798;10.968;2023-07-30T09:50:14;97799.16;;;21.34;60.42
49729;BME280;66333;49.798;10.968;2023-07-30T09:52:41;97806.25;;;21.28;60.67
49729;BME280;66333;49.798;10.968;2023-07-30T09:55:09;97808.19;;;21.33;60.46
49729;BME280;66333;49.798;10.968;2023-07-30T09:57:41;97797.53;;;21.33;60.59
49729;BME280;66333;49.798;10.968;2023-07-30T10:00:11;97790.91;;;21.35;60.35
49729;BME280;66333;49.798;10.968;2023-07-30T10:02:47;97794.38;;;21.36;60.46
49729;BME280;66333;49.798;10.968;2023-07-30T10:05:37;97797.41;;;21.39;60.38
49729;BME280;66333;49.798;10.968;2023-07-30T10:08:12;97787.22;;;21.36;60.15
49729;BME280;66333;49.798;10.968;2023-07-30T10:10:44;97787.75;;;21.62;58.48
49729;BME280;66333;49.798;10.968;2023-07-30T10:13:16;97794.81;;;21.68;58.47
49729;BME280;66333;49.798;10.968;2023-07-30T10:15:51;97786.50;;;21.53;59.08
49729;BME280;66333;49.798;10.968;2023-07-30T10:18:22;97789.75;;;21.55;57.96
49729;BME280;66333;49.798;10.968;2023-07-30T10:20:57;97789.41;;;21.51;58.63
49729;BME280;66333;49.798;10.968;2023-07-30T10:23:32;97782.81;;;21.54;58.49
49729;BME280;66333;49.798;10.968;2023-07-30T10:26:09;97784.31;;;21.50;58.67
49729;BME280;66333;49.798;10.968;2023-07-30T10:28:39;97793.47;;;21.54;58.16
49729;BME280;66333;49.798;10.968;2023-07-30T10:31:09;97794.41;;;21.48;58.98
49729;BME280;66333;49.798;10.968;2023-07-30T10:33:47;97786.84;;;21.45;59.13
49729;BME280;66333;49.798;10.968;2023-07-30T10:36:47;97794.50;;;21.53;58.55
49729;BME280;66333;49.798;10.968;2023-07-30T10:39:17;97789.88;;;21.48;58.47
49729;BME280;66333;49.798;10.968;2023-07-30T10:41:55;97796.03;;;21.49;58.80
49729;BME280;66333;49.798;10.968;2023-07-30T10:44:24;97794.84;;;21.45;59.13
49729;BME280;66333;49.798;10.968;2023-07-30T10:46:57;97783.75;;;21.48;59.08
49729;BME280;66333;49.798;10.968;2023-07-30T10:49:26;97790.22;;;21.52;58.92
49729;BME280;66333;49.798;10.968;2023-07-30T10:52:14;97792.19;;;21.45;59.25
49729;BME280;66333;49.798;10.968;2023-07-30T10:54:44;97790.81;;;21.42;59.48
49729;BME280;66333;49.798;10.968;2023-07-30T10:57:16;97803.22;;;21.36;59.55
49729;BME280;66333;49.798;10.968;2023-07-30T10:59:46;97828.47;;;21.34;59.88
49729;BME280;66333;49.798;10.968;2023-07-30T11:02:16;97845.59;;;21.26;60.03
49729;BME280;66333;49.798;10.968;2023-07-30T11:04:46;97839.44;;;21.26;60.02
49729;BME280;66333;49.798;10.968;2023-07-30T11:07:30;97826.63;;;21.34;60.21
49729;BME280;66333;49.798;10.968;2023-07-30T11:10:00;97827.97;;;21.25;60.30
49729;BME280;66333;49.798;10.968;2023-07-30T11:12:32;97826.16;;;21.37;60.04
49729;BME280;66333;49.798;10.968;2023-07-30T11:15:02;97833.00;;;21.33;60.28
49729;BME280;66333;49.798;10.968;2023-07-30T11:17:37;97825.94;;;21.39;59.75
49729;BME280;66333;49.798;10.968;2023-07-30T11:20:07;97820.81;;;21.49;59.81
49729;BME280;66333;49.798;10.968;2023-07-30T11:22:48;97821.63;;;21.50;59.80
49729;BME280;66333;49.798;10.968;2023-07-30T11:25:19;97828.22;;;21.35;59.86
49729;BME280;66333;49.798;10.968;2023-07-30T11:27:55;97826.28;;;21.43;59.95
49729;BME280;66333;49.798;10.968;2023-07-30T11:30:25;97827.97;;;21.25;60.55
49729;BME280;66333;49.798;10.968;2023-07-30T11:32:56;97830.22;;;21.28;60.49
49729;BME280;66333;49.798;10.968;2023-07-30T11:35:23;97834.84;;;21.33;60.42
49729;BME280;66333;49.798;10.968;2023-07-30T11:38:12;97827.09;;;21.31;60.04
49729;BME280;66333;49.798;10.968;2023-07-30T11:40:43;97825.81;;;21.34;60.44
49729;BME280;66333;49.798;10.968;2023-07-30T11:43:14;97824.91;;;21.28;60.14
49729;BME280;66333;49.798;10.968;2023-07-30T11:45:44;97824.06;;;21.39;59.94
49729;BME280;66333;49.798;10.968;2023-07-30T11:48:14;97827.31;;;21.42;60.00
49729;BME280;66333;49.798;10.968;2023-07-30T11:50:46;97823.94;;;21.34;60.15
49729;BME280;66333;49.798;10.968;2023-07-30T11:53:43;97821.03;;;21.24;60.63
49729;BME280;66333;49.798;10.968;2023-07-30T11:56:23;97813.59;;;21.26;60.50
49729;BME280;66333;49.798;10.968;2023-07-30T11:58:55;97820.72;;;21.32;60.57
49729;BME280;66333;49.798;10.968;2023-07-30T12:01:25;97814.81;;;21.30;60.35
49729;BME280;66333;49.798;10.968;2023-07-30T12:03:55;97803.91;;;21.32;60.57
49729;BME280;66333;49.798;10.968;2023-07-30T12:06:45;97808.75;;;21.35;60.08
49729;BME280;66333;49.798;10.968;2023-07-30T12:09:16;97813.50;;;21.45;60.03
49729;BME280;66333;49.798;10.968;2023-07-30T12:11:45;97815.03;;;21.40;60.16
49729;BME280;66333;49.798;10.968;2023-07-30T12:14:12;97816.78;;;21.47;59.86
49729;BME280;66333;49.798;10.968;2023-07-30T12:16:38;97805.88;;;21.48;59.97
49729;BME280;66333;49.798;10.968;2023-07-30T12:19:05;97802.63;;;21.46;59.85
49729;BME280;66333;49.798;10.968;2023-07-30T12:21:31;97807.16;;;21.46;59.70
49729;BME280;66333;49.798;10.968;2023-07-30T12:24:03;97798.56;;;21.44;59.92
49729;BME280;66333;49.798;10.968;2023-07-30T12:26:38;97795.31;;;21.42;59.90
49729;BME280;66333;49.798;10.968;2023-07-30T12:29:06;97791.53;;;21.37;60.02
49729;BME280;66333;49.798;10.968;2023-07-30T12:31:36;97790.00;;;21.42;60.22
49729;BME280;66333;49.798;10.968;2023-07-30T12:34:06;97787.91;;;21.44;60.14
49729;BME280;66333;49.798;10.968;2023-07-30T12:36:36;97789.50;;;21.45;59.76
49729;BME280;66333;49.798;10.968;2023-07-30T12:39:08;97787.09;;;21.43;60.07
49729;BME280;66333;49.798;10.968;2023-07-30T12:41:52;97788.84;;;21.37;60.09
49729;BME280;66333;49.798;10.968;2023-07-30T12:44:21;97793.72;;;21.40;60.05
49729;BME280;66333;49.798;10.968;2023-07-30T12:46:52;97798.56;;;21.44;60.09
49729;BME280;66333;49.798;10.968;2023-07-30T12:49:22;97778.41;;;21.48;59.33
49729;BME280;66333;49.798;10.968;2023-07-30T12:51:53;97778.28;;;21.43;59.84
49729;BME280;66333;49.798;10.968;2023-07-30T12:54:23;97788.63;;;21.39;59.84
49729;BME280;66333;49.798;10.968;2023-07-30T12:57:06;97801.69;;;21.40;59.87
49729;BME280;66333;49.798;10.968;2023-07-30T12:59:36;97819.22;;;21.36;59.81
49729;BME280;66333;49.798;10.968;2023-07-30T13:02:04;97827.78;;;21.38;60.02
49729;BME280;66333;49.798;10.968;2023-07-30T13:04:32;97817.81;;;21.46;59.75
49729;BME280;66333;49.798;10.968;2023-07-30T13:07:02;97827.78;;;21.38;60.01
49729;BME280;66333;49.798;10.968;2023-07-30T13:09:40;97823.16;;;21.46;59.79
49729;BME280;66333;49.798;10.968;2023-07-30T13:12:12;97826.50;;;21.41;59.80
49729;BME280;66333;49.798;10.968;2023-07-30T13:14:40;97831.94;;;21.34;60.05
49729;BME280;66333;49.798;10.968;2023-07-30T13:17:06;97844.94;;;21.43;59.50